EYKA/KUN METAR and TAF weather

Enter ICAO airport designator
Station Type Date Time Source
EYKA METAR 2019/10/21 22:50 UTC NOAA

EYKA 212250Z AUTO VRB02KT 3700 BR OVC002/// 09/08 Q1021


Station Type Date Time Source
EYKA Decoded METAR 2019/10/21 22:50 UTC NOAA

Kaunas, Lithuania (EYKA) 54-54N 023-55-12E
Oct 21, 2019 - 06:50 PM EDT / 2019.10.21 2250 UTC
Wind: Variable at 2 MPH (2 KT):0
Visibility: 2 mile(s):0
Sky conditions: overcast
Weather: mist
Temperature: 48 F (9 C)
Dew Point: 46 F (8 C)
Relative Humidity: 93%
Pressure (altimeter): 30.15 in. Hg (1021 hPa)
ob: EYKA 212250Z AUTO VRB02KT 3700 BR OVC002/// 09/08 Q1021
cycle: 23

Station Type Date Time Source
EYKA TAF 2019/10/21 18:06 UTC NOAA

TAF TAF EYKA 211701Z 2118/2218 VRB04KT 5000 BR NSC
TEMPO 2118/2121 0500 FG VV002
BECMG 2121/2122 0500 FG VV002
TEMPO 2122/2206 1500 BR SCT005
BECMG 2206/2208 25014KT 9000 SCT020
TEMPO 2209/2215 BKN015
BECMG 2216/2217 VRB04KT

Example: see airport list